Fresno Yosemite International Airport
KFAT : now visible

Airfield :











YOU CAN JOIN US ON...

 
LOGIN :

Register | Disclaimer

   EN    FR    IT 

 









Legend :    VFR   Marginal VFR   IFR   Intensive IFR   Very Intensive IFR
Visi :
Ceiling :
>= 8 km
>= 3000ft
5 to 8 km
1000 to 3000 ft
1500m to 5 km
500 to 1000 ft
800 to 1500m
200 to 500 ft
< 800m
< 200 ft
Symbols :   Thunderstorms  Fog  Heavy snow  Heavy precipitations  Wind > 20 kt






- Airport Elevation : 336 ft
- IATA code : FAT


KFAT - Fresno Yosemite International

CURRENT METAR :
  • 230353Z 31010KT 10SM OVC045 17/11 A2995 RMK AO2 SLP140 T01670111

EXPIRED METARs :
  • 230253Z 31010KT 10SM BKN043 OVC050 17/12 A2994 RMK AO2 SLP139 60000 T01670122 53000
  • 230153Z COR 31010KT 10SM SCT065 SCT140 SCT200 17/12 A2994 RMK AO2 SLP137 T01670122

TAF KFAT
Valid from the 23 at 00:00 until the 24 at 00:00 UTC


222320Z 2300/2324 31012KT P6SM BKN070
TEMPO 2300/2303 4SM -SHRA OVC025
FM230300 32007KT P6SM VCSH BKN050
FM230500 VRB04KT P6SM SCT180
KZOA FIR / North America



MET'MAP, your aeronautical weather chart ! - Copyright ORBIFLY December 2007 - Disclaimer

ORBIFLY MET'MAP TEAM :

Programming & Development : Alexandra Zaïnal
Concept & original design : Baudouin d'Aumeries
Assistance for programming : Marc-Olivier Méhu
Technical & hardware support : Manuel Goepfert

Contact : metmap@orbifly.com




SOURCES & CREDITS :

   NOAA       Earth
Advisory